sensor_id;sensor_type;location;lat;lon;timestamp;P1;durP1;ratioP1;P2;durP2;ratioP2
63189;SDS011;49286;44.460;26.114;2022-10-14T15:39:04;14.13;;;8.73;;
63189;SDS011;49286;44.460;26.114;2022-10-14T15:41:37;21.80;;;11.32;;
63189;SDS011;49286;44.460;26.114;2022-10-14T15:44:03;28.00;;;9.10;;
63189;SDS011;49286;44.460;26.114;2022-10-14T15:46:29;19.48;;;9.77;;
63189;SDS011;49286;44.460;26.114;2022-10-14T15:49:14;22.25;;;10.05;;
63189;SDS011;49286;44.460;26.114;2022-10-14T15:51:43;20.92;;;10.18;;
63189;SDS011;49286;44.460;26.114;2022-10-14T15:54:10;32.10;;;11.95;;
63189;SDS011;49286;44.460;26.114;2022-10-14T15:56:36;24.23;;;13.25;;
63189;SDS011;49286;44.460;26.114;2022-10-14T15:59:03;35.53;;;13.85;;
63189;SDS011;49286;44.460;26.114;2022-10-14T16:01:29;30.63;;;13.43;;
63189;SDS011;49286;44.460;26.114;2022-10-14T16:03:59;20.95;;;10.70;;
63189;SDS011;49286;44.460;26.114;2022-10-14T16:06:27;39.92;;;11.38;;
63189;SDS011;49286;44.460;26.114;2022-10-14T16:08:56;20.75;;;11.52;;
63189;SDS011;49286;44.460;26.114;2022-10-14T16:11:24;19.42;;;11.15;;
63189;SDS011;49286;44.460;26.114;2022-10-14T16:13:51;30.55;;;12.38;;
63189;SDS011;49286;44.460;26.114;2022-10-14T16:16:21;16.80;;;9.70;;
63189;SDS011;49286;44.460;26.114;2022-10-14T16:18:52;19.30;;;12.02;;
63189;SDS011;49286;44.460;26.114;2022-10-14T16:21:19;21.58;;;11.48;;
63189;SDS011;49286;44.460;26.114;2022-10-14T16:23:45;24.58;;;11.77;;
63189;SDS011;49286;44.460;26.114;2022-10-14T16:26:10;22.00;;;11.00;;
63189;SDS011;49286;44.460;26.114;2022-10-14T16:28:37;14.55;;;10.10;;
63189;SDS011;49286;44.460;26.114;2022-10-14T16:31:03;16.63;;;10.20;;
63189;SDS011;49286;44.460;26.114;2022-10-14T16:33:29;18.45;;;9.07;;
63189;SDS011;49286;44.460;26.114;2022-10-14T16:35:56;21.92;;;9.93;;
63189;SDS011;49286;44.460;26.114;2022-10-14T16:38:22;15.15;;;8.77;;
63189;SDS011;49286;44.460;26.114;2022-10-14T16:40:57;19.73;;;9.35;;
63189;SDS011;49286;44.460;26.114;2022-10-14T16:43:24;17.33;;;9.30;;
63189;SDS011;49286;44.460;26.114;2022-10-14T16:45:51;27.95;;;11.38;;
63189;SDS011;49286;44.460;26.114;2022-10-14T16:48:16;17.98;;;8.73;;
63189;SDS011;49286;44.460;26.114;2022-10-14T16:50:47;17.88;;;10.32;;
63189;SDS011;49286;44.460;26.114;2022-10-14T16:53:14;25.10;;;12.38;;
63189;SDS011;49286;44.460;26.114;2022-10-14T16:55:58;21.55;;;11.50;;
63189;SDS011;49286;44.460;26.114;2022-10-14T16:58:24;20.75;;;10.38;;
63189;SDS011;49286;44.460;26.114;2022-10-14T17:00:49;26.33;;;12.32;;
63189;SDS011;49286;44.460;26.114;2022-10-14T17:03:15;26.40;;;12.93;;
63189;SDS011;49286;44.460;26.114;2022-10-14T17:05:41;21.90;;;11.52;;
63189;SDS011;49286;44.460;26.114;2022-10-14T17:08:07;22.88;;;11.52;;
63189;SDS011;49286;44.460;26.114;2022-10-14T17:10:32;18.48;;;10.48;;
63189;SDS011;49286;44.460;26.114;2022-10-14T17:12:58;21.13;;;11.65;;
63189;SDS011;49286;44.460;26.114;2022-10-14T17:15:25;21.15;;;11.80;;
63189;SDS011;49286;44.460;26.114;2022-10-14T17:17:51;22.92;;;11.57;;
63189;SDS011;49286;44.460;26.114;2022-10-14T17:20:17;17.00;;;10.80;;
63189;SDS011;49286;44.460;26.114;2022-10-14T17:22:44;27.15;;;11.15;;
63189;SDS011;49286;44.460;26.114;2022-10-14T17:25:10;24.70;;;10.75;;
63189;SDS011;49286;44.460;26.114;2022-10-14T17:27:36;20.10;;;11.02;;
63189;SDS011;49286;44.460;26.114;2022-10-14T17:30:04;15.35;;;9.95;;
63189;SDS011;49286;44.460;26.114;2022-10-14T17:32:31;27.15;;;8.90;;
63189;SDS011;49286;44.460;26.114;2022-10-14T17:34:58;14.85;;;9.38;;
63189;SDS011;49286;44.460;26.114;2022-10-14T17:37:27;25.40;;;10.70;;
63189;SDS011;49286;44.460;26.114;2022-10-14T17:39:54;23.73;;;11.40;;
63189;SDS011;49286;44.460;26.114;2022-10-14T17:42:20;16.80;;;9.77;;
63189;SDS011;49286;44.460;26.114;2022-10-14T17:44:45;27.48;;;11.10;;
63189;SDS011;49286;44.460;26.114;2022-10-14T17:47:11;26.60;;;12.52;;
63189;SDS011;49286;44.460;26.114;2022-10-14T17:49:36;23.85;;;11.60;;
63189;SDS011;49286;44.460;26.114;2022-10-14T17:52:02;26.27;;;11.57;;
63189;SDS011;49286;44.460;26.114;2022-10-14T17:54:28;25.85;;;11.43;;
63189;SDS011;49286;44.460;26.114;2022-10-14T17:56:54;19.40;;;11.60;;
63189;SDS011;49286;44.460;26.114;2022-10-14T17:59:20;20.17;;;11.43;;
63189;SDS011;49286;44.460;26.114;2022-10-14T18:01:47;32.28;;;12.32;;
63189;SDS011;49286;44.460;26.114;2022-10-14T18:04:13;22.27;;;12.43;;
63189;SDS011;49286;44.460;26.114;2022-10-14T18:06:41;20.38;;;12.52;;
63189;SDS011;49286;44.460;26.114;2022-10-14T18:09:08;21.67;;;12.00;;
63189;SDS011;49286;44.460;26.114;2022-10-14T18:11:35;19.58;;;12.93;;
63189;SDS011;49286;44.460;26.114;2022-10-14T18:14:06;21.73;;;12.98;;
63189;SDS011;49286;44.460;26.114;2022-10-14T18:16:37;24.05;;;12.90;;
63189;SDS011;49286;44.460;26.114;2022-10-14T18:19:04;24.52;;;13.05;;
63189;SDS011;49286;44.460;26.114;2022-10-14T18:21:32;25.67;;;14.18;;
63189;SDS011;49286;44.460;26.114;2022-10-14T18:23:59;30.83;;;14.38;;
63189;SDS011;49286;44.460;26.114;2022-10-14T18:26:25;25.15;;;13.15;;
63189;SDS011;49286;44.460;26.114;2022-10-14T18:28:51;30.60;;;13.82;;
63189;SDS011;49286;44.460;26.114;2022-10-14T18:31:19;25.55;;;14.63;;
63189;SDS011;49286;44.460;26.114;2022-10-14T18:33:46;19.85;;;12.00;;
63189;SDS011;49286;44.460;26.114;2022-10-14T18:36:14;22.88;;;11.90;;
63189;SDS011;49286;44.460;26.114;2022-10-14T18:38:42;17.90;;;11.43;;
63189;SDS011;49286;44.460;26.114;2022-10-14T18:41:16;21.15;;;11.80;;
63189;SDS011;49286;44.460;26.114;2022-10-14T18:43:41;17.08;;;10.90;;
63189;SDS011;49286;44.460;26.114;2022-10-14T18:48:40;19.23;;;8.82;;
63189;SDS011;49286;44.460;26.114;2022-10-14T18:51:14;17.90;;;9.18;;
63189;SDS011;49286;44.460;26.114;2022-10-14T18:53:41;13.93;;;7.10;;
63189;SDS011;49286;44.460;26.114;2022-10-14T18:56:10;18.33;;;8.05;;
63189;SDS011;49286;44.460;26.114;2022-10-14T18:58:44;14.80;;;6.50;;
63189;SDS011;49286;44.460;26.114;2022-10-14T19:01:11;21.02;;;7.38;;
63189;SDS011;49286;44.460;26.114;2022-10-14T19:03:39;12.70;;;6.60;;
63189;SDS011;49286;44.460;26.114;2022-10-14T19:06:07;9.32;;;4.63;;
63189;SDS011;49286;44.460;26.114;2022-10-14T19:08:34;10.25;;;5.07;;
63189;SDS011;49286;44.460;26.114;2022-10-14T19:11:07;12.55;;;5.32;;
63189;SDS011;49286;44.460;26.114;2022-10-14T19:13:35;11.48;;;5.00;;
63189;SDS011;49286;44.460;26.114;2022-10-14T19:16:08;9.68;;;5.03;;
63189;SDS011;49286;44.460;26.114;2022-10-14T19:18:38;13.68;;;4.95;;
63189;SDS011;49286;44.460;26.114;2022-10-14T19:21:07;21.33;;;5.55;;
63189;SDS011;49286;44.460;26.114;2022-10-14T19:23:35;12.00;;;4.95;;
63189;SDS011;49286;44.460;26.114;2022-10-14T19:26:05;11.25;;;4.18;;
63189;SDS011;49286;44.460;26.114;2022-10-14T19:28:38;14.02;;;3.92;;
63189;SDS011;49286;44.460;26.114;2022-10-14T19:31:04;9.70;;;4.57;;
63189;SDS011;49286;44.460;26.114;2022-10-14T19:33:35;23.83;;;3.75;;
63189;SDS011;49286;44.460;26.114;2022-10-14T19:36:01;12.93;;;4.28;;
63189;SDS011;49286;44.460;26.114;2022-10-14T19:38:27;7.20;;;3.53;;
63189;SDS011;49286;44.460;26.114;2022-10-14T19:40:56;9.40;;;3.85;;
63189;SDS011;49286;44.460;26.114;2022-10-14T19:43:22;9.68;;;3.33;;
63189;SDS011;49286;44.460;26.114;2022-10-14T19:45:48;5.30;;;2.83;;
63189;SDS011;49286;44.460;26.114;2022-10-14T19:48:13;12.45;;;3.67;;
63189;SDS011;49286;44.460;26.114;2022-10-14T19:50:39;9.52;;;2.80;;
63189;SDS011;49286;44.460;26.114;2022-10-14T19:53:05;10.38;;;5.18;;
63189;SDS011;49286;44.460;26.114;2022-10-14T19:55:31;5.68;;;3.03;;
63189;SDS011;49286;44.460;26.114;2022-10-14T19:57:56;5.53;;;3.72;;
63189;SDS011;49286;44.460;26.114;2022-10-14T20:00:22;10.75;;;4.43;;
63189;SDS011;49286;44.460;26.114;2022-10-14T20:02:47;16.48;;;4.78;;
63189;SDS011;49286;44.460;26.114;2022-10-14T20:05:13;8.70;;;3.72;;
63189;SDS011;49286;44.460;26.114;2022-10-14T20:07:41;6.43;;;3.03;;
63189;SDS011;49286;44.460;26.114;2022-10-14T20:10:09;8.38;;;3.70;;
63189;SDS011;49286;44.460;26.114;2022-10-14T20:12:36;7.57;;;3.35;;
63189;SDS011;49286;44.460;26.114;2022-10-14T20:15:01;8.50;;;3.00;;
63189;SDS011;49286;44.460;26.114;2022-10-14T20:17:27;9.02;;;3.25;;
63189;SDS011;49286;44.460;26.114;2022-10-14T20:19:53;9.38;;;4.00;;
63189;SDS011;49286;44.460;26.114;2022-10-14T20:22:18;8.93;;;3.33;;
63189;SDS011;49286;44.460;26.114;2022-10-14T20:24:44;7.00;;;3.15;;
63189;SDS011;49286;44.460;26.114;2022-10-14T20:27:09;7.65;;;3.95;;
63189;SDS011;49286;44.460;26.114;2022-10-14T20:29:35;13.02;;;3.22;;
63189;SDS011;49286;44.460;26.114;2022-10-14T20:32:01;10.20;;;2.70;;
63189;SDS011;49286;44.460;26.114;2022-10-14T20:34:27;9.52;;;3.30;;
63189;SDS011;49286;44.460;26.114;2022-10-14T20:36:52;8.00;;;2.63;;
63189;SDS011;49286;44.460;26.114;2022-10-14T20:39:18;7.53;;;3.25;;
63189;SDS011;49286;44.460;26.114;2022-10-14T20:41:44;7.53;;;4.20;;
63189;SDS011;49286;44.460;26.114;2022-10-14T20:44:09;8.98;;;4.03;;
63189;SDS011;49286;44.460;26.114;2022-10-14T20:46:34;10.23;;;2.30;;
63189;SDS011;49286;44.460;26.114;2022-10-14T20:49:00;7.32;;;2.67;;
63189;SDS011;49286;44.460;26.114;2022-10-14T20:51:26;19.50;;;3.60;;
63189;SDS011;49286;44.460;26.114;2022-10-14T20:53:55;7.43;;;3.53;;
63189;SDS011;49286;44.460;26.114;2022-10-14T20:56:22;8.27;;;3.35;;
63189;SDS011;49286;44.460;26.114;2022-10-14T20:58:52;12.82;;;3.05;;
63189;SDS011;49286;44.460;26.114;2022-10-14T21:01:24;10.23;;;3.15;;
63189;SDS011;49286;44.460;26.114;2022-10-14T21:03:51;7.72;;;3.28;;
63189;SDS011;49286;44.460;26.114;2022-10-14T21:06:18;6.90;;;3.42;;
63189;SDS011;49286;44.460;26.114;2022-10-14T21:08:46;6.93;;;3.28;;
63189;SDS011;49286;44.460;26.114;2022-10-14T21:11:17;6.72;;;3.25;;
63189;SDS011;49286;44.460;26.114;2022-10-14T21:13:46;19.80;;;4.15;;
63189;SDS011;49286;44.460;26.114;2022-10-14T21:18:51;15.98;;;3.42;;
63189;SDS011;49286;44.460;26.114;2022-10-14T21:21:22;8.52;;;3.40;;
63189;SDS011;49286;44.460;26.114;2022-10-14T21:23:49;9.70;;;2.60;;
63189;SDS011;49286;44.460;26.114;2022-10-14T21:26:15;4.82;;;2.80;;
63189;SDS011;49286;44.460;26.114;2022-10-14T21:28:40;12.25;;;2.72;;
63189;SDS011;49286;44.460;26.114;2022-10-14T21:31:06;8.65;;;2.85;;
63189;SDS011;49286;44.460;26.114;2022-10-14T21:33:33;4.65;;;2.65;;
63189;SDS011;49286;44.460;26.114;2022-10-14T21:36:03;8.93;;;3.25;;
63189;SDS011;49286;44.460;26.114;2022-10-14T21:38:29;7.18;;;3.40;;
63189;SDS011;49286;44.460;26.114;2022-10-14T21:40:59;9.43;;;4.82;;
63189;SDS011;49286;44.460;26.114;2022-10-14T21:43:26;7.18;;;3.30;;
63189;SDS011;49286;44.460;26.114;2022-10-14T21:45:52;7.93;;;4.03;;
63189;SDS011;49286;44.460;26.114;2022-10-14T21:48:18;6.53;;;3.00;;
63189;SDS011;49286;44.460;26.114;2022-10-14T21:50:43;15.10;;;3.45;;
63189;SDS011;49286;44.460;26.114;2022-10-14T21:53:09;10.65;;;4.32;;
63189;SDS011;49286;44.460;26.114;2022-10-14T21:55:34;8.52;;;3.47;;
63189;SDS011;49286;44.460;26.114;2022-10-14T21:58:00;9.55;;;3.20;;
63189;SDS011;49286;44.460;26.114;2022-10-14T22:00:25;18.08;;;4.03;;
63189;SDS011;49286;44.460;26.114;2022-10-14T22:02:51;7.43;;;3.10;;
63189;SDS011;49286;44.460;26.114;2022-10-14T22:05:17;8.10;;;4.55;;
63189;SDS011;49286;44.460;26.114;2022-10-14T22:07:43;7.65;;;3.67;;
63189;SDS011;49286;44.460;26.114;2022-10-14T22:10:10;10.48;;;3.47;;
63189;SDS011;49286;44.460;26.114;2022-10-14T22:12:55;11.43;;;3.88;;
63189;SDS011;49286;44.460;26.114;2022-10-14T22:15:22;8.40;;;3.75;;
63189;SDS011;49286;44.460;26.114;2022-10-14T22:17:49;17.30;;;4.20;;
63189;SDS011;49286;44.460;26.114;2022-10-14T22:20:15;11.05;;;3.97;;
63189;SDS011;49286;44.460;26.114;2022-10-14T22:22:40;9.05;;;4.32;;
63189;SDS011;49286;44.460;26.114;2022-10-14T22:25:06;8.75;;;5.05;;
63189;SDS011;49286;44.460;26.114;2022-10-14T22:27:32;10.75;;;4.28;;
63189;SDS011;49286;44.460;26.114;2022-10-14T22:29:57;7.78;;;4.28;;
63189;SDS011;49286;44.460;26.114;2022-10-14T22:32:23;9.15;;;4.65;;
63189;SDS011;49286;44.460;26.114;2022-10-14T22:34:48;7.43;;;3.83;;
63189;SDS011;49286;44.460;26.114;2022-10-14T22:37:14;10.43;;;4.25;;
63189;SDS011;49286;44.460;26.114;2022-10-14T22:39:39;7.72;;;4.13;;
63189;SDS011;49286;44.460;26.114;2022-10-14T22:42:05;10.10;;;5.05;;
63189;SDS011;49286;44.460;26.114;2022-10-14T22:44:30;7.63;;;4.22;;
63189;SDS011;49286;44.460;26.114;2022-10-14T22:46:55;8.80;;;4.40;;
63189;SDS011;49286;44.460;26.114;2022-10-14T22:49:27;10.18;;;3.80;;
63189;SDS011;49286;44.460;26.114;2022-10-14T22:51:54;12.68;;;4.32;;
63189;SDS011;49286;44.460;26.114;2022-10-14T22:54:20;10.05;;;4.38;;
63189;SDS011;49286;44.460;26.114;2022-10-14T22:56:45;14.05;;;3.88;;
63189;SDS011;49286;44.460;26.114;2022-10-14T22:59:11;6.68;;;3.13;;
63189;SDS011;49286;44.460;26.114;2022-10-14T23:01:37;9.15;;;4.47;;
63189;SDS011;49286;44.460;26.114;2022-10-14T23:04:04;11.15;;;4.38;;
63189;SDS011;49286;44.460;26.114;2022-10-14T23:06:29;6.03;;;3.60;;
63189;SDS011;49286;44.460;26.114;2022-10-14T23:08:55;8.73;;;4.50;;
63189;SDS011;49286;44.460;26.114;2022-10-14T23:11:24;8.68;;;4.53;;
63189;SDS011;49286;44.460;26.114;2022-10-14T23:13:50;8.40;;;4.32;;
63189;SDS011;49286;44.460;26.114;2022-10-14T23:16:17;11.43;;;4.85;;
63189;SDS011;49286;44.460;26.114;2022-10-14T23:18:45;12.23;;;5.43;;
63189;SDS011;49286;44.460;26.114;2022-10-14T23:23:47;10.27;;;6.43;;
63189;SDS011;49286;44.460;26.114;2022-10-14T23:26:14;16.95;;;6.28;;
63189;SDS011;49286;44.460;26.114;2022-10-14T23:28:42;10.75;;;6.03;;
63189;SDS011;49286;44.460;26.114;2022-10-14T23:31:12;12.07;;;5.10;;
63189;SDS011;49286;44.460;26.114;2022-10-14T23:33:39;9.90;;;6.15;;
63189;SDS011;49286;44.460;26.114;2022-10-14T23:36:05;16.23;;;6.00;;
63189;SDS011;49286;44.460;26.114;2022-10-14T23:38:32;20.05;;;5.80;;
63189;SDS011;49286;44.460;26.114;2022-10-14T23:40:58;13.07;;;6.35;;
63189;SDS011;49286;44.460;26.114;2022-10-14T23:43:24;10.07;;;6.03;;
63189;SDS011;49286;44.460;26.114;2022-10-14T23:45:50;13.43;;;5.97;;
63189;SDS011;49286;44.460;26.114;2022-10-14T23:48:15;10.63;;;5.25;;
63189;SDS011;49286;44.460;26.114;2022-10-14T23:50:41;9.02;;;5.22;;
63189;SDS011;49286;44.460;26.114;2022-10-14T23:53:08;8.35;;;5.18;;
63189;SDS011;49286;44.460;26.114;2022-10-14T23:55:34;11.15;;;6.05;;
63189;SDS011;49286;44.460;26.114;2022-10-14T23:58:00;10.23;;;5.07;;
